This is the latest recevied weather packets stored in our database for station/object AD6NH. If no packets are shown the sender has not sent any weather packets the latest 10 day(s).
| Time | Temp. | Humidity | Pressure | Rain* | Wind** | Luminosity | Snow |
|---|---|---|---|---|---|---|---|
| 1778168223 | 19.44° C | 68% | 1017.3 hPa | 0 mm | - | - | - |
| 1778167623 | 19.44° C | 69% | 1017.4 hPa | 0 mm | - | - | - |
| 1778167023 | 18.33° C | 73% | 1017.5 hPa | 0 mm | - | - | - |
| 1778166423 | 17.78° C | 73% | 1017.5 hPa | 0 mm | - | - | - |
| 1778165823 | 18.89° C | 71% | 1017.4 hPa | 0 mm | - | - | - |
| 1778165223 | 17.78° C | 74% | 1017.4 hPa | 0 mm | - | - | - |
| 1778164623 | 17.22° C | 77% | 1017.3 hPa | 0 mm | - | - | - |
| 1778164023 | 16.67° C | 78% | 1017.2 hPa | 0 mm | - | - | - |
| 1778163423 | 16.67° C | 78% | 1017.1 hPa | 0 mm | - | - | - |
| 1778162823 | 16.11° C | 80% | 1017 hPa | 0 mm | - | - | - |
| 1778162223 | 16.11° C | 79% | 1016.9 hPa | 0 mm | - | - | - |
| 1778161623 | 16.11° C | 80% | 1016.8 hPa | 0 mm | - | - | - |
| 1778161023 | 13.33° C | 89% | 1016.7 hPa | 0 mm | - | - | - |
| 1778160423 | 13.33° C | 89% | 1016.7 hPa | 0 mm | - | - | - |
| 1778159823 | 12.78° C | 89% | 1016.6 hPa | 0 mm | - | - | - |
| 1778159223 | 12.78° C | 89% | 1016.6 hPa | 0 mm | - | - | - |
| 1778158623 | 12.78° C | 90% | 1016.4 hPa | 0 mm | - | - | - |
| 1778158023 | 12.78° C | 89% | 1016.4 hPa | 0 mm | - | - | - |
| 1778157423 | 13.33° C | 88% | 1016.3 hPa | 0 mm | - | - | - |
| 1778156823 | 13.33° C | 89% | 1016.3 hPa | 0 mm | - | - | - |
| 1778156223 | 12.78° C | 88% | 1016.3 hPa | 0 mm | - | - | - |
| 1778155623 | 13.33° C | 88% | 1016.5 hPa | 0 mm | - | - | - |
| 1778155023 | 13.33° C | 88% | 1016.5 hPa | 0 mm | - | - | - |
| 1778154423 | 13.33° C | 88% | 1016.5 hPa | 0 mm | - | - | - |
| 1778153823 | 13.89° C | 87% | 1016.5 hPa | 0 mm | - | - | - |
* Rain latest hour (hover to see other rain measurements)
** Current wind speed in m/s (hover to see current wind gust speed)